Tropical Cyclones
[Index]
Main Index Home Page Stock Weather Photos Extreme Storms Discussion Storm News and Storm Chasing Reports Tropical Cyclones / Hurricanes / Typhoons Weather Data and Links Wild Fires / Bushfires Weather Observation Techniques Weather Picture Catalogue Tornado Pictures and Reports Stock Video Footage and DVDs for sale
Season 2005-2006 Tropical Cyclone LARRY Track Map
Season 2005-2006 Summaries: [BoM-AU] [JTWC-AU] [JTWC-SIO] [JTWC-SPAC] [JTWC-SH]
<<- Previous TC | BoM 2005-2006 Season | Next TC ->>

click for intensity scale information  Lat/long Grid: Show Hide

 Date Labels: Show Hide

Bureau of Meteorology Tropical Cyclone Data

Name: LARRY
Number: 898 / 200506_15

14 Mar 2006 12:00 UTC to 21 Mar 2006 11:00 UTC

    date/time    lat    long    hPa   cat  kts
2006-03-14 12   12.5   158.0                25          
2006-03-14 18   12.5   158.0   1003         25          
2006-03-15 00   12.5   158.0   1005         25          
2006-03-15 06   12.5   158.7                25          
2006-03-15 12   12.5   159.4   1003         25          
2006-03-15 18   13.4   159.4   1003         25          
2006-03-16 00   14.1   159.7                25          
2006-03-16 06   14.4   160.0   1000         30          
2006-03-16 12   14.7   160.0                30          
2006-03-16 18   15.0   160.3   1000         30          
2006-03-17 00   15.2   160.0                30          
2006-03-17 06   15.7   159.6    998         30          
2006-03-17 12   16.1   159.0    999         30          
2006-03-17 18   16.3   158.0    995    1    40          
2006-03-18 00   17.2   156.6    985    2    50          
2006-03-18 06   17.1   155.4    975    2    60          
2006-03-18 12   17.2   154.6    970    3    65          
2006-03-18 18   17.5   152.8    970    3    70          
2006-03-19 00   17.7   151.2    970    3    90          
2006-03-19 06   17.6   149.7    955    4    90          
2006-03-19 09   17.6   148.9    935    4    95          
2006-03-19 12   17.5   148.3    935    4    100          
2006-03-19 15   17.5   147.6    935    4    100          
2006-03-19 17   17.5   147.1    935    4    100          
2006-03-19 18   17.5   146.8    935    4    100          
2006-03-19 19   17.5   146.6    935    4    100          
2006-03-19 20   17.6   146.4    935    4    100          
2006-03-19 21   17.6   146.1    940    4    95          
2006-03-19 22   17.4   145.8    950    4    90          
2006-03-19 23   17.4   145.6    959    3    90          
2006-03-20 00   17.5   145.3    965    3    85          
2006-03-20 06   17.8   143.8    980    2    55          
2006-03-20 12   18.7   142.2    990    1    40          
2006-03-20 15   19.0   141.2    995    1    30          
2006-03-20 18   19.0   140.8    997         30          
2006-03-21 01   19.5   139.7                25          
2006-03-21 04   19.6   139.0                25          
2006-03-21 11   19.7   138.7                25          
Winds are 10-min average.

Tropical cyclone tracks developed by Michael Bath using data from the Bureau of Meteorology and Google Maps.


[Australian Severe Weather index] [Copyright Notice] [Email Contacts] [Search This Site] [Privacy Policy]
Document: tropical_cyclone_larry.htm Updated: 29 June 2017